sensor_id;sensor_type;location;lat;lon;timestamp;temperature;humidity
14993;DHT22;7592;51.088;13.732;2023-04-25T00:03:33;10.00;99.90
14993;DHT22;7592;51.088;13.732;2023-04-25T00:08:28;10.10;99.90
14993;DHT22;7592;51.088;13.732;2023-04-25T00:13:20;10.20;99.90
14993;DHT22;7592;51.088;13.732;2023-04-25T00:18:14;10.20;99.90
14993;DHT22;7592;51.088;13.732;2023-04-25T00:23:06;10.40;99.90
14993;DHT22;7592;51.088;13.732;2023-04-25T00:28:00;10.50;99.90
14993;DHT22;7592;51.088;13.732;2023-04-25T00:32:52;10.60;99.90
14993;DHT22;7592;51.088;13.732;2023-04-25T00:37:45;10.60;99.90
14993;DHT22;7592;51.088;13.732;2023-04-25T00:42:37;10.50;99.90
14993;DHT22;7592;51.088;13.732;2023-04-25T00:47:29;10.50;99.90
14993;DHT22;7592;51.088;13.732;2023-04-25T00:52:22;10.30;99.90
14993;DHT22;7592;51.088;13.732;2023-04-25T00:57:14;10.30;99.90
14993;DHT22;7592;51.088;13.732;2023-04-25T01:02:07;10.00;99.90
14993;DHT22;7592;51.088;13.732;2023-04-25T01:14:02;9.40;99.90
14993;DHT22;7592;51.088;13.732;2023-04-25T01:18:54;9.10;99.90
14993;DHT22;7592;51.088;13.732;2023-04-25T01:23:47;9.00;99.90
14993;DHT22;7592;51.088;13.732;2023-04-25T01:28:40;8.80;99.90
14993;DHT22;7592;51.088;13.732;2023-04-25T01:33:34;8.70;99.90
14993;DHT22;7592;51.088;13.732;2023-04-25T01:38:27;8.60;99.90
14993;DHT22;7592;51.088;13.732;2023-04-25T01:43:19;8.60;99.90
14993;DHT22;7592;51.088;13.732;2023-04-25T01:48:13;8.50;99.90
14993;DHT22;7592;51.088;13.732;2023-04-25T01:58:10;8.30;99.90
14993;DHT22;7592;51.088;13.732;2023-04-25T02:03:20;8.20;99.90
14993;DHT22;7592;51.088;13.732;2023-04-25T02:08:13;8.20;99.90
14993;DHT22;7592;51.088;13.732;2023-04-25T02:13:05;8.10;99.90
14993;DHT22;7592;51.088;13.732;2023-04-25T02:18:07;8.10;99.90
14993;DHT22;7592;51.088;13.732;2023-04-25T02:22:59;8.10;99.90
14993;DHT22;7592;51.088;13.732;2023-04-25T02:27:52;8.10;99.90
14993;DHT22;7592;51.088;13.732;2023-04-25T02:32:44;8.00;99.90
14993;DHT22;7592;51.088;13.732;2023-04-25T02:37:38;7.90;99.90
14993;DHT22;7592;51.088;13.732;2023-04-25T02:42:31;7.80;99.90
14993;DHT22;7592;51.088;13.732;2023-04-25T02:47:24;7.70;99.90
14993;DHT22;7592;51.088;13.732;2023-04-25T02:52:16;7.60;99.90
14993;DHT22;7592;51.088;13.732;2023-04-25T02:57:14;7.50;99.90
14993;DHT22;7592;51.088;13.732;2023-04-25T03:02:06;7.50;99.90
14993;DHT22;7592;51.088;13.732;2023-04-25T03:06:58;7.40;99.90
14993;DHT22;7592;51.088;13.732;2023-04-25T03:11:51;7.30;99.90
14993;DHT22;7592;51.088;13.732;2023-04-25T03:16:44;7.20;99.90
14993;DHT22;7592;51.088;13.732;2023-04-25T03:21:37;7.20;99.90
14993;DHT22;7592;51.088;13.732;2023-04-25T03:26:29;7.10;99.90
14993;DHT22;7592;51.088;13.732;2023-04-25T03:31:22;7.10;99.90
14993;DHT22;7592;51.088;13.732;2023-04-25T03:36:14;7.10;99.90
14993;DHT22;7592;51.088;13.732;2023-04-25T03:41:06;7.10;99.90
14993;DHT22;7592;51.088;13.732;2023-04-25T03:46:06;7.10;99.90
14993;DHT22;7592;51.088;13.732;2023-04-25T03:51:00;7.10;99.90
14993;DHT22;7592;51.088;13.732;2023-04-25T03:55:53;7.00;99.90
14993;DHT22;7592;51.088;13.732;2023-04-25T04:00:46;7.00;99.90
14993;DHT22;7592;51.088;13.732;2023-04-25T04:05:38;7.00;99.90
14993;DHT22;7592;51.088;13.732;2023-04-25T04:10:33;7.00;99.90
14993;DHT22;7592;51.088;13.732;2023-04-25T04:15:26;7.10;99.90
14993;DHT22;7592;51.088;13.732;2023-04-25T04:20:19;7.30;99.90
14993;DHT22;7592;51.088;13.732;2023-04-25T04:25:13;7.60;99.90
14993;DHT22;7592;51.088;13.732;2023-04-25T04:30:29;7.80;99.90
14993;DHT22;7592;51.088;13.732;2023-04-25T04:35:24;7.90;99.90
14993;DHT22;7592;51.088;13.732;2023-04-25T04:40:17;7.90;99.90
14993;DHT22;7592;51.088;13.732;2023-04-25T04:45:16;8.10;99.90
14993;DHT22;7592;51.088;13.732;2023-04-25T04:50:28;8.40;99.90
14993;DHT22;7592;51.088;13.732;2023-04-25T04:55:33;9.40;99.90
14993;DHT22;7592;51.088;13.732;2023-04-25T05:00:32;9.70;99.90
14993;DHT22;7592;51.088;13.732;2023-04-25T05:05:37;9.60;99.90
14993;DHT22;7592;51.088;13.732;2023-04-25T05:10:41;9.70;99.90
14993;DHT22;7592;51.088;13.732;2023-04-25T05:15:51;9.80;99.90
14993;DHT22;7592;51.088;13.732;2023-04-25T05:20:52;9.90;99.90
14993;DHT22;7592;51.088;13.732;2023-04-25T05:26:11;10.40;99.90
14993;DHT22;7592;51.088;13.732;2023-04-25T05:31:28;17.30;99.90
14993;DHT22;7592;51.088;13.732;2023-04-25T05:36:26;22.30;86.00
14993;DHT22;7592;51.088;13.732;2023-04-25T05:41:20;25.30;66.10
14993;DHT22;7592;51.088;13.732;2023-04-25T05:46:39;26.90;57.20
14993;DHT22;7592;51.088;13.732;2023-04-25T05:51:36;27.60;52.90
14993;DHT22;7592;51.088;13.732;2023-04-25T05:56:47;27.70;51.90
14993;DHT22;7592;51.088;13.732;2023-04-25T06:01:39;28.00;51.20
14993;DHT22;7592;51.088;13.732;2023-04-25T06:06:32;24.10;55.40
14993;DHT22;7592;51.088;13.732;2023-04-25T06:11:24;20.40;61.40
14993;DHT22;7592;51.088;13.732;2023-04-25T06:16:16;18.00;68.60
14993;DHT22;7592;51.088;13.732;2023-04-25T06:21:08;18.70;69.50
14993;DHT22;7592;51.088;13.732;2023-04-25T06:26:01;22.20;59.70
14993;DHT22;7592;51.088;13.732;2023-04-25T06:30:55;25.00;55.80
14993;DHT22;7592;51.088;13.732;2023-04-25T06:35:47;27.70;51.60
14993;DHT22;7592;51.088;13.732;2023-04-25T06:40:45;29.10;48.50
14993;DHT22;7592;51.088;13.732;2023-04-25T06:45:38;30.20;46.70
14993;DHT22;7592;51.088;13.732;2023-04-25T06:50:33;31.50;44.90
14993;DHT22;7592;51.088;13.732;2023-04-25T06:55:27;30.80;44.60
14993;DHT22;7592;51.088;13.732;2023-04-25T07:00:43;32.70;43.30
14993;DHT22;7592;51.088;13.732;2023-04-25T07:05:35;33.30;42.40
14993;DHT22;7592;51.088;13.732;2023-04-25T07:10:28;33.60;41.20
14993;DHT22;7592;51.088;13.732;2023-04-25T07:15:21;33.80;41.30
14993;DHT22;7592;51.088;13.732;2023-04-25T07:20:14;35.30;40.40
14993;DHT22;7592;51.088;13.732;2023-04-25T07:25:08;33.40;41.10
14993;DHT22;7592;51.088;13.732;2023-04-25T07:30:01;33.70;40.30
14993;DHT22;7592;51.088;13.732;2023-04-25T07:34:54;32.90;40.90
14993;DHT22;7592;51.088;13.732;2023-04-25T07:39:46;30.70;41.20
14993;DHT22;7592;51.088;13.732;2023-04-25T07:44:40;26.50;45.60
14993;DHT22;7592;51.088;13.732;2023-04-25T07:49:36;25.90;48.20
14993;DHT22;7592;51.088;13.732;2023-04-25T07:54:29;29.20;44.40
14993;DHT22;7592;51.088;13.732;2023-04-25T07:59:28;27.50;44.70
14993;DHT22;7592;51.088;13.732;2023-04-25T08:04:24;25.20;47.70
14993;DHT22;7592;51.088;13.732;2023-04-25T08:09:22;24.60;49.90
14993;DHT22;7592;51.088;13.732;2023-04-25T08:14:15;29.00;45.00
14993;DHT22;7592;51.088;13.732;2023-04-25T08:19:10;28.50;44.40
14993;DHT22;7592;51.088;13.732;2023-04-25T08:24:03;25.30;47.50
14993;DHT22;7592;51.088;13.732;2023-04-25T08:28:59;24.90;50.50
14993;DHT22;7592;51.088;13.732;2023-04-25T08:33:53;24.20;50.20
14993;DHT22;7592;51.088;13.732;2023-04-25T08:39:05;22.70;52.90
14993;DHT22;7592;51.088;13.732;2023-04-25T08:44:05;21.30;54.30
14993;DHT22;7592;51.088;13.732;2023-04-25T08:49:01;20.20;56.70
14993;DHT22;7592;51.088;13.732;2023-04-25T08:53:53;20.10;57.80
14993;DHT22;7592;51.088;13.732;2023-04-25T08:59:06;21.50;55.40
14993;DHT22;7592;51.088;13.732;2023-04-25T09:04:02;22.40;53.80
14993;DHT22;7592;51.088;13.732;2023-04-25T09:08:54;21.80;53.80
14993;DHT22;7592;51.088;13.732;2023-04-25T09:13:48;20.60;56.50
14993;DHT22;7592;51.088;13.732;2023-04-25T09:18:48;20.40;57.20
14993;DHT22;7592;51.088;13.732;2023-04-25T09:23:45;19.70;58.40
14993;DHT22;7592;51.088;13.732;2023-04-25T09:28:37;20.60;57.00
14993;DHT22;7592;51.088;13.732;2023-04-25T09:33:34;20.50;57.10
14993;DHT22;7592;51.088;13.732;2023-04-25T09:38:32;18.90;60.00
14993;DHT22;7592;51.088;13.732;2023-04-25T09:43:35;17.40;64.30
14993;DHT22;7592;51.088;13.732;2023-04-25T09:48:30;16.50;66.60
14993;DHT22;7592;51.088;13.732;2023-04-25T09:53:27;16.20;67.30
14993;DHT22;7592;51.088;13.732;2023-04-25T09:58:37;16.30;68.00
14993;DHT22;7592;51.088;13.732;2023-04-25T10:03:32;16.70;67.80
14993;DHT22;7592;51.088;13.732;2023-04-25T10:08:54;17.70;66.70
14993;DHT22;7592;51.088;13.732;2023-04-25T10:13:50;19.40;61.40
14993;DHT22;7592;51.088;13.732;2023-04-25T10:18:43;20.30;59.20
14993;DHT22;7592;51.088;13.732;2023-04-25T10:23:35;19.90;59.70
14993;DHT22;7592;51.088;13.732;2023-04-25T10:28:28;19.40;60.50
14993;DHT22;7592;51.088;13.732;2023-04-25T10:33:39;18.50;62.00
14993;DHT22;7592;51.088;13.732;2023-04-25T10:38:31;18.10;64.70
14993;DHT22;7592;51.088;13.732;2023-04-25T10:43:46;18.60;65.10
14993;DHT22;7592;51.088;13.732;2023-04-25T10:48:51;18.90;64.50
14993;DHT22;7592;51.088;13.732;2023-04-25T10:53:48;18.70;63.80
14993;DHT22;7592;51.088;13.732;2023-04-25T10:58:48;17.90;65.20
14993;DHT22;7592;51.088;13.732;2023-04-25T11:03:43;17.20;67.30
14993;DHT22;7592;51.088;13.732;2023-04-25T11:08:48;16.20;70.90
14993;DHT22;7592;51.088;13.732;2023-04-25T11:13:41;15.40;73.90
14993;DHT22;7592;51.088;13.732;2023-04-25T11:18:34;15.10;75.80
14993;DHT22;7592;51.088;13.732;2023-04-25T11:23:26;14.90;78.10
14993;DHT22;7592;51.088;13.732;2023-04-25T11:28:22;14.90;79.60
14993;DHT22;7592;51.088;13.732;2023-04-25T11:33:17;15.60;81.60
14993;DHT22;7592;51.088;13.732;2023-04-25T11:38:09;16.80;78.50
14993;DHT22;7592;51.088;13.732;2023-04-25T11:43:02;17.20;70.50
14993;DHT22;7592;51.088;13.732;2023-04-25T11:47:54;17.70;69.70
14993;DHT22;7592;51.088;13.732;2023-04-25T11:52:47;18.20;68.20
14993;DHT22;7592;51.088;13.732;2023-04-25T11:57:40;18.60;66.30
14993;DHT22;7592;51.088;13.732;2023-04-25T12:02:41;18.60;65.50
14993;DHT22;7592;51.088;13.732;2023-04-25T12:07:34;19.10;64.80
14993;DHT22;7592;51.088;13.732;2023-04-25T12:12:28;19.00;65.50
14993;DHT22;7592;51.088;13.732;2023-04-25T12:17:23;18.50;66.10
14993;DHT22;7592;51.088;13.732;2023-04-25T12:22:23;17.10;69.70
14993;DHT22;7592;51.088;13.732;2023-04-25T12:27:16;16.50;71.00
14993;DHT22;7592;51.088;13.732;2023-04-25T12:32:12;16.70;70.70
14993;DHT22;7592;51.088;13.732;2023-04-25T12:37:04;16.50;70.10
14993;DHT22;7592;51.088;13.732;2023-04-25T12:41:56;17.00;69.70
14993;DHT22;7592;51.088;13.732;2023-04-25T12:46:48;18.00;68.50
14993;DHT22;7592;51.088;13.732;2023-04-25T12:51:41;18.60;65.10
14993;DHT22;7592;51.088;13.732;2023-04-25T12:56:34;19.00;62.50
14993;DHT22;7592;51.088;13.732;2023-04-25T13:01:27;18.50;63.90
14993;DHT22;7592;51.088;13.732;2023-04-25T13:06:20;17.80;64.40
14993;DHT22;7592;51.088;13.732;2023-04-25T13:11:12;17.20;65.60
14993;DHT22;7592;51.088;13.732;2023-04-25T13:16:07;16.50;67.60
14993;DHT22;7592;51.088;13.732;2023-04-25T13:20:59;15.50;70.20
14993;DHT22;7592;51.088;13.732;2023-04-25T13:25:51;14.70;73.20
14993;DHT22;7592;51.088;13.732;2023-04-25T13:30:44;14.20;74.60
14993;DHT22;7592;51.088;13.732;2023-04-25T13:35:37;14.20;76.50
14993;DHT22;7592;51.088;13.732;2023-04-25T13:40:30;13.90;77.20
14993;DHT22;7592;51.088;13.732;2023-04-25T13:45:22;13.70;78.20
14993;DHT22;7592;51.088;13.732;2023-04-25T13:50:14;13.60;77.50
14993;DHT22;7592;51.088;13.732;2023-04-25T13:55:08;13.60;77.30
14993;DHT22;7592;51.088;13.732;2023-04-25T14:00:00;13.60;77.50
14993;DHT22;7592;51.088;13.732;2023-04-25T14:04:57;13.60;77.60
14993;DHT22;7592;51.088;13.732;2023-04-25T14:09:49;13.90;77.30
14993;DHT22;7592;51.088;13.732;2023-04-25T14:14:41;14.20;74.50
14993;DHT22;7592;51.088;13.732;2023-04-25T14:19:34;14.60;74.00
14993;DHT22;7592;51.088;13.732;2023-04-25T14:24:26;15.00;73.00
14993;DHT22;7592;51.088;13.732;2023-04-25T14:29:18;15.50;71.80
14993;DHT22;7592;51.088;13.732;2023-04-25T14:34:10;15.60;71.00
14993;DHT22;7592;51.088;13.732;2023-04-25T14:39:03;15.60;69.70
14993;DHT22;7592;51.088;13.732;2023-04-25T14:43:57;15.70;69.20
14993;DHT22;7592;51.088;13.732;2023-04-25T14:48:50;16.00;68.90
14993;DHT22;7592;51.088;13.732;2023-04-25T14:53:43;15.60;70.00
14993;DHT22;7592;51.088;13.732;2023-04-25T14:58:35;15.10;70.60
14993;DHT22;7592;51.088;13.732;2023-04-25T15:03:27;14.70;72.60
14993;DHT22;7592;51.088;13.732;2023-04-25T15:08:19;14.70;71.90
14993;DHT22;7592;51.088;13.732;2023-04-25T15:13:12;14.20;69.80
14993;DHT22;7592;51.088;13.732;2023-04-25T15:18:04;14.10;70.10
14993;DHT22;7592;51.088;13.732;2023-04-25T15:22:57;14.30;69.90
14993;DHT22;7592;51.088;13.732;2023-04-25T15:27:49;14.40;69.10
14993;DHT22;7592;51.088;13.732;2023-04-25T15:32:44;14.30;68.30
14993;DHT22;7592;51.088;13.732;2023-04-25T15:37:36;13.70;68.90
14993;DHT22;7592;51.088;13.732;2023-04-25T15:42:29;13.50;70.50
14993;DHT22;7592;51.088;13.732;2023-04-25T15:47:22;13.40;71.20
14993;DHT22;7592;51.088;13.732;2023-04-25T15:52:14;13.30;72.00
14993;DHT22;7592;51.088;13.732;2023-04-25T15:57:06;13.10;73.00
14993;DHT22;7592;51.088;13.732;2023-04-25T16:02:01;13.00;73.20
14993;DHT22;7592;51.088;13.732;2023-04-25T16:06:53;13.00;74.00
14993;DHT22;7592;51.088;13.732;2023-04-25T16:11:45;13.00;73.60
14993;DHT22;7592;51.088;13.732;2023-04-25T16:16:37;13.10;73.90
14993;DHT22;7592;51.088;13.732;2023-04-25T16:21:29;13.20;72.70
14993;DHT22;7592;51.088;13.732;2023-04-25T16:26:22;13.50;73.00
14993;DHT22;7592;51.088;13.732;2023-04-25T16:31:14;13.50;71.40
14993;DHT22;7592;51.088;13.732;2023-04-25T16:36:08;13.40;72.30
14993;DHT22;7592;51.088;13.732;2023-04-25T16:41:00;13.50;69.40
14993;DHT22;7592;51.088;13.732;2023-04-25T16:45:52;13.30;68.30
14993;DHT22;7592;51.088;13.732;2023-04-25T16:50:44;13.10;69.20
14993;DHT22;7592;51.088;13.732;2023-04-25T16:55:36;12.70;66.00
14993;DHT22;7592;51.088;13.732;2023-04-25T17:00:28;12.20;67.40
14993;DHT22;7592;51.088;13.732;2023-04-25T17:05:21;12.00;69.20
14993;DHT22;7592;51.088;13.732;2023-04-25T17:10:13;12.00;70.20
14993;DHT22;7592;51.088;13.732;2023-04-25T17:15:05;12.00;70.30
14993;DHT22;7592;51.088;13.732;2023-04-25T17:19:58;12.00;71.10
14993;DHT22;7592;51.088;13.732;2023-04-25T17:24:50;11.90;71.70
14993;DHT22;7592;51.088;13.732;2023-04-25T17:29:42;11.90;72.60
14993;DHT22;7592;51.088;13.732;2023-04-25T17:34:34;11.80;72.00
14993;DHT22;7592;51.088;13.732;2023-04-25T17:39:28;11.70;72.70
14993;DHT22;7592;51.088;13.732;2023-04-25T17:44:20;11.30;73.30
14993;DHT22;7592;51.088;13.732;2023-04-25T17:49:12;10.90;75.20
14993;DHT22;7592;51.088;13.732;2023-04-25T17:54:04;10.70;76.10
14993;DHT22;7592;51.088;13.732;2023-04-25T17:58:57;10.40;77.40
14993;DHT22;7592;51.088;13.732;2023-04-25T18:03:50;10.30;78.00
14993;DHT22;7592;51.088;13.732;2023-04-25T18:08:42;10.30;77.50
14993;DHT22;7592;51.088;13.732;2023-04-25T18:13:36;10.30;78.00
14993;DHT22;7592;51.088;13.732;2023-04-25T18:18:29;10.20;78.40
14993;DHT22;7592;51.088;13.732;2023-04-25T18:23:24;10.20;78.60
14993;DHT22;7592;51.088;13.732;2023-04-25T18:28:17;10.20;78.70
14993;DHT22;7592;51.088;13.732;2023-04-25T18:33:09;10.20;79.80
14993;DHT22;7592;51.088;13.732;2023-04-25T18:38:02;10.30;80.50
14993;DHT22;7592;51.088;13.732;2023-04-25T18:42:54;10.30;81.20
14993;DHT22;7592;51.088;13.732;2023-04-25T18:47:47;10.30;81.00
14993;DHT22;7592;51.088;13.732;2023-04-25T18:52:39;10.10;82.80
14993;DHT22;7592;51.088;13.732;2023-04-25T18:57:32;9.70;85.40
14993;DHT22;7592;51.088;13.732;2023-04-25T19:02:24;9.30;90.20
14993;DHT22;7592;51.088;13.732;2023-04-25T19:07:18;8.90;94.20
14993;DHT22;7592;51.088;13.732;2023-04-25T19:12:11;8.70;97.90
14993;DHT22;7592;51.088;13.732;2023-04-25T19:17:03;8.50;99.90
14993;DHT22;7592;51.088;13.732;2023-04-25T19:21:57;8.40;99.90
14993;DHT22;7592;51.088;13.732;2023-04-25T19:26:49;8.20;99.90
14993;DHT22;7592;51.088;13.732;2023-04-25T19:31:43;8.10;99.90
14993;DHT22;7592;51.088;13.732;2023-04-25T19:36:37;7.90;99.90
14993;DHT22;7592;51.088;13.732;2023-04-25T19:41:30;7.80;99.90
14993;DHT22;7592;51.088;13.732;2023-04-25T19:46:22;7.70;99.90
14993;DHT22;7592;51.088;13.732;2023-04-25T19:51:15;7.60;99.90
14993;DHT22;7592;51.088;13.732;2023-04-25T19:56:08;7.60;99.90
14993;DHT22;7592;51.088;13.732;2023-04-25T20:01:00;7.40;99.90
14993;DHT22;7592;51.088;13.732;2023-04-25T20:05:53;7.40;99.90
14993;DHT22;7592;51.088;13.732;2023-04-25T20:10:45;7.30;99.90
14993;DHT22;7592;51.088;13.732;2023-04-25T20:15:38;7.30;99.90
14993;DHT22;7592;51.088;13.732;2023-04-25T20:20:30;7.20;99.90
14993;DHT22;7592;51.088;13.732;2023-04-25T20:25:22;7.10;99.90
14993;DHT22;7592;51.088;13.732;2023-04-25T20:30:14;7.00;99.90
14993;DHT22;7592;51.088;13.732;2023-04-25T20:35:08;7.00;99.90
14993;DHT22;7592;51.088;13.732;2023-04-25T20:40:03;6.90;99.90
14993;DHT22;7592;51.088;13.732;2023-04-25T20:44:56;6.80;99.90
14993;DHT22;7592;51.088;13.732;2023-04-25T20:49:48;6.80;99.90
14993;DHT22;7592;51.088;13.732;2023-04-25T20:54:40;6.70;99.90
14993;DHT22;7592;51.088;13.732;2023-04-25T20:59:34;6.60;99.90
14993;DHT22;7592;51.088;13.732;2023-04-25T21:04:26;6.70;99.90
14993;DHT22;7592;51.088;13.732;2023-04-25T21:09:18;6.80;99.90
14993;DHT22;7592;51.088;13.732;2023-04-25T21:14:11;6.90;99.90
14993;DHT22;7592;51.088;13.732;2023-04-25T21:19:03;7.00;99.90
14993;DHT22;7592;51.088;13.732;2023-04-25T21:23:55;7.00;99.90
14993;DHT22;7592;51.088;13.732;2023-04-25T21:28:48;6.90;99.90
14993;DHT22;7592;51.088;13.732;2023-04-25T21:33:40;6.90;99.90
14993;DHT22;7592;51.088;13.732;2023-04-25T21:38:32;6.90;99.90
14993;DHT22;7592;51.088;13.732;2023-04-25T21:43:24;6.80;99.90
14993;DHT22;7592;51.088;13.732;2023-04-25T21:48:16;6.90;99.90
14993;DHT22;7592;51.088;13.732;2023-04-25T21:53:09;6.90;99.90
14993;DHT22;7592;51.088;13.732;2023-04-25T21:58:01;7.00;99.90
14993;DHT22;7592;51.088;13.732;2023-04-25T22:02:54;7.30;99.90
14993;DHT22;7592;51.088;13.732;2023-04-25T22:07:49;7.60;99.90
14993;DHT22;7592;51.088;13.732;2023-04-25T22:12:42;7.70;99.90
14993;DHT22;7592;51.088;13.732;2023-04-25T22:17:35;7.90;99.90
14993;DHT22;7592;51.088;13.732;2023-04-25T22:22:28;8.00;99.90
14993;DHT22;7592;51.088;13.732;2023-04-25T22:27:20;8.10;99.90
14993;DHT22;7592;51.088;13.732;2023-04-25T22:32:12;8.20;99.90
14993;DHT22;7592;51.088;13.732;2023-04-25T22:37:04;8.30;99.90
14993;DHT22;7592;51.088;13.732;2023-04-25T22:41:56;8.20;99.90
14993;DHT22;7592;51.088;13.732;2023-04-25T22:46:49;8.20;99.90
14993;DHT22;7592;51.088;13.732;2023-04-25T22:51:41;8.20;99.90
14993;DHT22;7592;51.088;13.732;2023-04-25T22:56:33;8.20;99.90
14993;DHT22;7592;51.088;13.732;2023-04-25T23:01:25;8.20;99.90
14993;DHT22;7592;51.088;13.732;2023-04-25T23:06:19;8.10;99.90
14993;DHT22;7592;51.088;13.732;2023-04-25T23:11:11;8.00;99.90
14993;DHT22;7592;51.088;13.732;2023-04-25T23:16:08;7.90;99.90
14993;DHT22;7592;51.088;13.732;2023-04-25T23:21:03;7.90;99.90
14993;DHT22;7592;51.088;13.732;2023-04-25T23:25:55;7.80;99.90
14993;DHT22;7592;51.088;13.732;2023-04-25T23:30:48;7.80;99.90
14993;DHT22;7592;51.088;13.732;2023-04-25T23:35:40;7.80;99.90
14993;DHT22;7592;51.088;13.732;2023-04-25T23:40:32;7.90;99.90
14993;DHT22;7592;51.088;13.732;2023-04-25T23:45:25;8.00;99.90
14993;DHT22;7592;51.088;13.732;2023-04-25T23:50:19;8.00;99.90
14993;DHT22;7592;51.088;13.732;2023-04-25T23:55:11;8.00;99.90
